BFP weather

Beaver County Airport
Beaver Falls, Pennsylvania, United States

Public forecast

Using degrees Fahrenheit for public forecast. Weather courtesy of forecast.io.

Current aviation weather report (METAR) for Beaver County Airport

Retrieved 2019/10/14 14:36 UTC (0 seconds ago):

KBVI 141436Z AUTO 28006KT 10SM CLR 13/05 A3003 RMK AO2 T01320053

Aviation forecast (TAF) for Beaver County Airport

Retrieved 2019/10/14 12:22 UTC (2 hours ago):

TAF KBVI 141120Z 1412/1512 21005KT P6SM SKC FM141500 27010G18KT P6SM SCT035 FM142200 29005KT P6SM SKC